sensor_id;sensor_type;location;lat;lon;timestamp;P1;durP1;ratioP1;P2;durP2;ratioP2
77324;SDS011;66387;53.440;10.390;2023-07-20T00:01:07;3.90;;;2.97;;
77324;SDS011;66387;53.440;10.390;2023-07-20T00:03:33;3.60;;;3.00;;
77324;SDS011;66387;53.440;10.390;2023-07-20T00:05:58;5.80;;;3.43;;
77324;SDS011;66387;53.440;10.390;2023-07-20T00:08:23;5.15;;;2.88;;
77324;SDS011;66387;53.440;10.390;2023-07-20T00:10:49;3.97;;;2.67;;
77324;SDS011;66387;53.440;10.390;2023-07-20T00:13:14;3.80;;;2.63;;
77324;SDS011;66387;53.440;10.390;2023-07-20T00:15:41;3.85;;;3.10;;
77324;SDS011;66387;53.440;10.390;2023-07-20T00:18:06;5.15;;;2.40;;
77324;SDS011;66387;53.440;10.390;2023-07-20T00:20:32;3.15;;;2.60;;
77324;SDS011;66387;53.440;10.390;2023-07-20T00:22:57;2.72;;;2.42;;
77324;SDS011;66387;53.440;10.390;2023-07-20T00:25:23;5.28;;;2.58;;
77324;SDS011;66387;53.440;10.390;2023-07-20T00:27:49;2.75;;;2.33;;
77324;SDS011;66387;53.440;10.390;2023-07-20T00:30:14;4.65;;;2.58;;
77324;SDS011;66387;53.440;10.390;2023-07-20T00:32:39;4.67;;;2.20;;
77324;SDS011;66387;53.440;10.390;2023-07-20T00:35:05;3.90;;;2.90;;
77324;SDS011;66387;53.440;10.390;2023-07-20T00:37:30;2.58;;;2.03;;
77324;SDS011;66387;53.440;10.390;2023-07-20T00:39:56;5.38;;;2.60;;
77324;SDS011;66387;53.440;10.390;2023-07-20T00:42:21;3.10;;;2.67;;
77324;SDS011;66387;53.440;10.390;2023-07-20T00:44:46;3.00;;;2.70;;
77324;SDS011;66387;53.440;10.390;2023-07-20T00:47:12;4.07;;;2.60;;
77324;SDS011;66387;53.440;10.390;2023-07-20T00:49:37;2.80;;;2.50;;
77324;SDS011;66387;53.440;10.390;2023-07-20T00:52:03;4.30;;;2.60;;
77324;SDS011;66387;53.440;10.390;2023-07-20T00:54:31;3.17;;;2.75;;
77324;SDS011;66387;53.440;10.390;2023-07-20T00:56:57;3.47;;;3.05;;
77324;SDS011;66387;53.440;10.390;2023-07-20T00:59:23;3.28;;;2.60;;
77324;SDS011;66387;53.440;10.390;2023-07-20T01:01:49;3.72;;;2.50;;
77324;SDS011;66387;53.440;10.390;2023-07-20T01:04:14;2.83;;;2.13;;
77324;SDS011;66387;53.440;10.390;2023-07-20T01:06:48;3.63;;;2.60;;
77324;SDS011;66387;53.440;10.390;2023-07-20T01:09:44;4.20;;;2.50;;
77324;SDS011;66387;53.440;10.390;2023-07-20T01:12:13;3.75;;;2.72;;
77324;SDS011;66387;53.440;10.390;2023-07-20T01:14:47;3.20;;;2.88;;
77324;SDS011;66387;53.440;10.390;2023-07-20T01:17:13;3.90;;;3.15;;
77324;SDS011;66387;53.440;10.390;2023-07-20T01:19:39;3.20;;;2.90;;
77324;SDS011;66387;53.440;10.390;2023-07-20T01:22:29;5.25;;;3.13;;
77324;SDS011;66387;53.440;10.390;2023-07-20T01:33:38;4.00;;;2.47;;
77324;SDS011;66387;53.440;10.390;2023-07-20T01:36:05;2.90;;;2.60;;
77324;SDS011;66387;53.440;10.390;2023-07-20T01:38:32;5.57;;;3.00;;
77324;SDS011;66387;53.440;10.390;2023-07-20T01:40:58;4.65;;;3.22;;
77324;SDS011;66387;53.440;10.390;2023-07-20T01:43:24;4.05;;;2.38;;
77324;SDS011;66387;53.440;10.390;2023-07-20T01:45:49;2.93;;;2.50;;
77324;SDS011;66387;53.440;10.390;2023-07-20T01:48:14;6.40;;;2.57;;
77324;SDS011;66387;53.440;10.390;2023-07-20T01:50:39;4.00;;;2.70;;
77324;SDS011;66387;53.440;10.390;2023-07-20T01:53:05;4.20;;;2.53;;
77324;SDS011;66387;53.440;10.390;2023-07-20T01:55:30;5.40;;;3.10;;
77324;SDS011;66387;53.440;10.390;2023-07-20T01:57:55;2.63;;;2.28;;
77324;SDS011;66387;53.440;10.390;2023-07-20T02:00:21;4.32;;;2.60;;
77324;SDS011;66387;53.440;10.390;2023-07-20T02:02:49;3.08;;;2.55;;
77324;SDS011;66387;53.440;10.390;2023-07-20T02:05:14;4.55;;;2.65;;
77324;SDS011;66387;53.440;10.390;2023-07-20T02:07:40;4.03;;;2.80;;
77324;SDS011;66387;53.440;10.390;2023-07-20T02:10:05;2.93;;;2.37;;
77324;SDS011;66387;53.440;10.390;2023-07-20T02:12:31;3.60;;;2.47;;
77324;SDS011;66387;53.440;10.390;2023-07-20T02:14:56;4.00;;;2.85;;
77324;SDS011;66387;53.440;10.390;2023-07-20T02:17:22;4.30;;;3.07;;
77324;SDS011;66387;53.440;10.390;2023-07-20T02:19:50;3.60;;;2.60;;
77324;SDS011;66387;53.440;10.390;2023-07-20T02:22:15;4.53;;;3.63;;
77324;SDS011;66387;53.440;10.390;2023-07-20T02:24:41;4.22;;;2.72;;
77324;SDS011;66387;53.440;10.390;2023-07-20T02:27:07;5.00;;;2.80;;
77324;SDS011;66387;53.440;10.390;2023-07-20T02:29:32;4.60;;;3.40;;
77324;SDS011;66387;53.440;10.390;2023-07-20T02:31:57;4.87;;;3.23;;
77324;SDS011;66387;53.440;10.390;2023-07-20T02:34:23;3.97;;;2.65;;
77324;SDS011;66387;53.440;10.390;2023-07-20T02:36:48;3.33;;;2.73;;
77324;SDS011;66387;53.440;10.390;2023-07-20T02:39:14;5.88;;;3.33;;
77324;SDS011;66387;53.440;10.390;2023-07-20T02:41:39;4.97;;;3.13;;
77324;SDS011;66387;53.440;10.390;2023-07-20T02:44:04;5.30;;;4.03;;
77324;SDS011;66387;53.440;10.390;2023-07-20T02:46:29;4.33;;;3.27;;
77324;SDS011;66387;53.440;10.390;2023-07-20T02:48:55;3.97;;;3.45;;
77324;SDS011;66387;53.440;10.390;2023-07-20T02:51:20;4.43;;;3.30;;
77324;SDS011;66387;53.440;10.390;2023-07-20T02:53:45;3.50;;;3.00;;
77324;SDS011;66387;53.440;10.390;2023-07-20T02:56:11;4.60;;;3.03;;
77324;SDS011;66387;53.440;10.390;2023-07-20T02:58:39;5.60;;;3.03;;
77324;SDS011;66387;53.440;10.390;2023-07-20T03:01:08;4.88;;;3.72;;
77324;SDS011;66387;53.440;10.390;2023-07-20T03:03:34;4.75;;;3.22;;
77324;SDS011;66387;53.440;10.390;2023-07-20T03:06:03;3.83;;;3.30;;
77324;SDS011;66387;53.440;10.390;2023-07-20T03:08:33;6.30;;;4.05;;
77324;SDS011;66387;53.440;10.390;2023-07-20T03:10:59;4.50;;;3.73;;
77324;SDS011;66387;53.440;10.390;2023-07-20T03:13:24;5.10;;;3.77;;
77324;SDS011;66387;53.440;10.390;2023-07-20T03:15:49;5.73;;;4.10;;
77324;SDS011;66387;53.440;10.390;2023-07-20T03:18:14;5.23;;;4.23;;
77324;SDS011;66387;53.440;10.390;2023-07-20T03:20:40;6.40;;;3.93;;
77324;SDS011;66387;53.440;10.390;2023-07-20T03:23:05;4.93;;;4.15;;
77324;SDS011;66387;53.440;10.390;2023-07-20T03:25:30;5.23;;;4.00;;
77324;SDS011;66387;53.440;10.390;2023-07-20T03:27:56;5.23;;;4.27;;
77324;SDS011;66387;53.440;10.390;2023-07-20T03:30:21;4.83;;;3.80;;
77324;SDS011;66387;53.440;10.390;2023-07-20T03:32:46;4.38;;;3.75;;
77324;SDS011;66387;53.440;10.390;2023-07-20T03:35:11;4.43;;;3.77;;
77324;SDS011;66387;53.440;10.390;2023-07-20T03:37:37;4.70;;;4.07;;
77324;SDS011;66387;53.440;10.390;2023-07-20T03:40:03;5.70;;;4.35;;
77324;SDS011;66387;53.440;10.390;2023-07-20T03:42:29;7.43;;;4.80;;
77324;SDS011;66387;53.440;10.390;2023-07-20T03:44:55;5.53;;;4.37;;
77324;SDS011;66387;53.440;10.390;2023-07-20T03:47:21;5.30;;;4.25;;
77324;SDS011;66387;53.440;10.390;2023-07-20T03:49:46;4.90;;;4.40;;
77324;SDS011;66387;53.440;10.390;2023-07-20T03:52:11;6.47;;;3.97;;
77324;SDS011;66387;53.440;10.390;2023-07-20T03:54:36;7.03;;;4.60;;
77324;SDS011;66387;53.440;10.390;2023-07-20T03:57:02;5.40;;;4.63;;
77324;SDS011;66387;53.440;10.390;2023-07-20T03:59:27;6.20;;;4.35;;
77324;SDS011;66387;53.440;10.390;2023-07-20T04:01:52;4.85;;;4.28;;
77324;SDS011;66387;53.440;10.390;2023-07-20T04:04:18;5.45;;;4.32;;
77324;SDS011;66387;53.440;10.390;2023-07-20T04:06:44;5.38;;;4.47;;
77324;SDS011;66387;53.440;10.390;2023-07-20T04:09:09;4.85;;;4.20;;
77324;SDS011;66387;53.440;10.390;2023-07-20T04:11:35;5.30;;;4.80;;
77324;SDS011;66387;53.440;10.390;2023-07-20T04:14:00;5.07;;;4.00;;
77324;SDS011;66387;53.440;10.390;2023-07-20T04:16:25;6.07;;;4.53;;
77324;SDS011;66387;53.440;10.390;2023-07-20T04:18:51;6.63;;;4.15;;
77324;SDS011;66387;53.440;10.390;2023-07-20T04:21:17;8.55;;;3.58;;
77324;SDS011;66387;53.440;10.390;2023-07-20T04:23:42;6.77;;;3.67;;
77324;SDS011;66387;53.440;10.390;2023-07-20T04:26:07;5.07;;;3.40;;
77324;SDS011;66387;53.440;10.390;2023-07-20T04:28:32;5.33;;;4.03;;
77324;SDS011;66387;53.440;10.390;2023-07-20T04:31:14;4.63;;;3.67;;
77324;SDS011;66387;53.440;10.390;2023-07-20T04:33:40;4.72;;;4.03;;
77324;SDS011;66387;53.440;10.390;2023-07-20T04:36:06;4.55;;;3.88;;
77324;SDS011;66387;53.440;10.390;2023-07-20T04:38:32;5.50;;;3.80;;
77324;SDS011;66387;53.440;10.390;2023-07-20T04:40:57;5.35;;;3.90;;
77324;SDS011;66387;53.440;10.390;2023-07-20T04:43:22;5.37;;;3.67;;
77324;SDS011;66387;53.440;10.390;2023-07-20T04:45:48;3.50;;;2.83;;
77324;SDS011;66387;53.440;10.390;2023-07-20T04:48:14;5.13;;;3.20;;
77324;SDS011;66387;53.440;10.390;2023-07-20T04:50:41;4.00;;;3.00;;
77324;SDS011;66387;53.440;10.390;2023-07-20T04:53:08;4.35;;;3.58;;
77324;SDS011;66387;53.440;10.390;2023-07-20T04:55:35;3.35;;;2.83;;
77324;SDS011;66387;53.440;10.390;2023-07-20T04:58:01;4.07;;;3.20;;
77324;SDS011;66387;53.440;10.390;2023-07-20T05:00:28;3.65;;;3.00;;
77324;SDS011;66387;53.440;10.390;2023-07-20T05:02:54;4.68;;;2.95;;
77324;SDS011;66387;53.440;10.390;2023-07-20T05:05:19;4.60;;;4.20;;
77324;SDS011;66387;53.440;10.390;2023-07-20T05:07:44;4.87;;;2.90;;
77324;SDS011;66387;53.440;10.390;2023-07-20T05:10:09;3.40;;;2.80;;
77324;SDS011;66387;53.440;10.390;2023-07-20T05:12:35;4.33;;;3.63;;
77324;SDS011;66387;53.440;10.390;2023-07-20T05:15:00;5.27;;;3.20;;
77324;SDS011;66387;53.440;10.390;2023-07-20T05:17:25;5.47;;;3.23;;
77324;SDS011;66387;53.440;10.390;2023-07-20T05:19:50;4.00;;;2.80;;
77324;SDS011;66387;53.440;10.390;2023-07-20T05:22:16;4.43;;;2.67;;
77324;SDS011;66387;53.440;10.390;2023-07-20T05:24:41;4.60;;;3.40;;
77324;SDS011;66387;53.440;10.390;2023-07-20T05:27:07;4.60;;;3.50;;
77324;SDS011;66387;53.440;10.390;2023-07-20T05:29:32;4.28;;;3.20;;
77324;SDS011;66387;53.440;10.390;2023-07-20T05:31:58;5.72;;;3.25;;
77324;SDS011;66387;53.440;10.390;2023-07-20T05:34:23;4.00;;;2.90;;
77324;SDS011;66387;53.440;10.390;2023-07-20T05:36:48;5.10;;;3.10;;
77324;SDS011;66387;53.440;10.390;2023-07-20T05:39:14;3.47;;;2.88;;
77324;SDS011;66387;53.440;10.390;2023-07-20T05:41:41;3.97;;;3.03;;
77324;SDS011;66387;53.440;10.390;2023-07-20T05:44:06;5.13;;;3.33;;
77324;SDS011;66387;53.440;10.390;2023-07-20T05:46:32;3.87;;;3.20;;
77324;SDS011;66387;53.440;10.390;2023-07-20T05:48:57;4.33;;;2.80;;
77324;SDS011;66387;53.440;10.390;2023-07-20T05:51:22;5.53;;;3.37;;
77324;SDS011;66387;53.440;10.390;2023-07-20T05:53:47;4.53;;;2.67;;
77324;SDS011;66387;53.440;10.390;2023-07-20T05:56:13;3.33;;;3.03;;
77324;SDS011;66387;53.440;10.390;2023-07-20T05:58:39;3.72;;;2.53;;
77324;SDS011;66387;53.440;10.390;2023-07-20T06:01:04;4.00;;;2.57;;
77324;SDS011;66387;53.440;10.390;2023-07-20T06:03:31;4.22;;;2.63;;
77324;SDS011;66387;53.440;10.390;2023-07-20T06:05:59;2.50;;;2.17;;
77324;SDS011;66387;53.440;10.390;2023-07-20T06:08:25;2.58;;;2.20;;
77324;SDS011;66387;53.440;10.390;2023-07-20T06:10:51;3.83;;;2.37;;
77324;SDS011;66387;53.440;10.390;2023-07-20T06:13:17;2.58;;;2.00;;
77324;SDS011;66387;53.440;10.390;2023-07-20T06:15:42;4.07;;;2.15;;
77324;SDS011;66387;53.440;10.390;2023-07-20T06:18:08;4.88;;;2.20;;
77324;SDS011;66387;53.440;10.390;2023-07-20T06:20:33;3.03;;;2.25;;
77324;SDS011;66387;53.440;10.390;2023-07-20T06:22:59;3.00;;;1.90;;
77324;SDS011;66387;53.440;10.390;2023-07-20T06:25:24;3.20;;;1.73;;
77324;SDS011;66387;53.440;10.390;2023-07-20T06:27:50;1.63;;;1.48;;
77324;SDS011;66387;53.440;10.390;2023-07-20T06:30:19;3.88;;;1.90;;
77324;SDS011;66387;53.440;10.390;2023-07-20T06:32:44;2.33;;;1.55;;
77324;SDS011;66387;53.440;10.390;2023-07-20T06:35:10;2.35;;;1.83;;
77324;SDS011;66387;53.440;10.390;2023-07-20T06:37:35;2.67;;;1.60;;
77324;SDS011;66387;53.440;10.390;2023-07-20T06:40:01;4.90;;;2.13;;
77324;SDS011;66387;53.440;10.390;2023-07-20T06:47:18;2.27;;;1.97;;
77324;SDS011;66387;53.440;10.390;2023-07-20T06:49:43;1.90;;;1.70;;
77324;SDS011;66387;53.440;10.390;2023-07-20T06:52:09;2.75;;;1.90;;
77324;SDS011;66387;53.440;10.390;2023-07-20T06:54:34;3.90;;;2.10;;
77324;SDS011;66387;53.440;10.390;2023-07-20T06:56:59;2.47;;;1.87;;
77324;SDS011;66387;53.440;10.390;2023-07-20T06:59:24;2.77;;;1.93;;
77324;SDS011;66387;53.440;10.390;2023-07-20T07:01:50;2.70;;;1.60;;
77324;SDS011;66387;53.440;10.390;2023-07-20T07:04:15;3.00;;;2.13;;
77324;SDS011;66387;53.440;10.390;2023-07-20T07:06:40;4.93;;;1.80;;
77324;SDS011;66387;53.440;10.390;2023-07-20T07:09:06;1.70;;;1.60;;
77324;SDS011;66387;53.440;10.390;2023-07-20T07:11:33;2.42;;;1.90;;
77324;SDS011;66387;53.440;10.390;2023-07-20T07:13:58;2.15;;;1.63;;
77324;SDS011;66387;53.440;10.390;2023-07-20T07:16:23;3.43;;;2.10;;
77324;SDS011;66387;53.440;10.390;2023-07-20T07:18:49;3.10;;;1.83;;
77324;SDS011;66387;53.440;10.390;2023-07-20T07:21:15;2.30;;;2.00;;
77324;SDS011;66387;53.440;10.390;2023-07-20T07:23:41;2.75;;;1.67;;
77324;SDS011;66387;53.440;10.390;2023-07-20T07:26:06;2.17;;;1.65;;
77324;SDS011;66387;53.440;10.390;2023-07-20T07:28:31;2.20;;;1.50;;
77324;SDS011;66387;53.440;10.390;2023-07-20T07:30:57;1.80;;;1.40;;
77324;SDS011;66387;53.440;10.390;2023-07-20T07:33:23;1.83;;;1.33;;
77324;SDS011;66387;53.440;10.390;2023-07-20T07:35:49;5.35;;;2.58;;
77324;SDS011;66387;53.440;10.390;2023-07-20T07:38:14;1.70;;;1.45;;
77324;SDS011;66387;53.440;10.390;2023-07-20T07:40:39;3.13;;;1.47;;
77324;SDS011;66387;53.440;10.390;2023-07-20T07:43:05;2.03;;;1.53;;
77324;SDS011;66387;53.440;10.390;2023-07-20T07:45:31;2.22;;;1.80;;
77324;SDS011;66387;53.440;10.390;2023-07-20T07:48:00;4.20;;;1.58;;
77324;SDS011;66387;53.440;10.390;2023-07-20T07:50:25;3.15;;;1.42;;
77324;SDS011;66387;53.440;10.390;2023-07-20T07:52:52;3.30;;;1.60;;
77324;SDS011;66387;53.440;10.390;2023-07-20T07:55:18;2.83;;;1.40;;
77324;SDS011;66387;53.440;10.390;2023-07-20T07:57:44;4.95;;;2.20;;
77324;SDS011;66387;53.440;10.390;2023-07-20T08:00:10;2.90;;;1.10;;
77324;SDS011;66387;53.440;10.390;2023-07-20T08:02:42;1.98;;;1.48;;
77324;SDS011;66387;53.440;10.390;2023-07-20T08:05:09;3.20;;;1.50;;
77324;SDS011;66387;53.440;10.390;2023-07-20T08:07:35;2.47;;;1.45;;
77324;SDS011;66387;53.440;10.390;2023-07-20T08:10:02;3.40;;;1.45;;
77324;SDS011;66387;53.440;10.390;2023-07-20T08:12:28;2.50;;;1.45;;
77324;SDS011;66387;53.440;10.390;2023-07-20T08:14:54;3.38;;;1.40;;
77324;SDS011;66387;53.440;10.390;2023-07-20T08:17:20;2.55;;;1.40;;
77324;SDS011;66387;53.440;10.390;2023-07-20T08:19:46;2.83;;;1.60;;
77324;SDS011;66387;53.440;10.390;2023-07-20T08:24:39;2.92;;;1.27;;
77324;SDS011;66387;53.440;10.390;2023-07-20T08:27:06;3.85;;;1.98;;
77324;SDS011;66387;53.440;10.390;2023-07-20T08:29:32;1.40;;;1.15;;
77324;SDS011;66387;53.440;10.390;2023-07-20T08:31:58;2.00;;;1.60;;
77324;SDS011;66387;53.440;10.390;2023-07-20T08:34:23;2.33;;;1.43;;
77324;SDS011;66387;53.440;10.390;2023-07-20T08:36:48;3.17;;;1.33;;
77324;SDS011;66387;53.440;10.390;2023-07-20T08:39:13;2.30;;;1.20;;
77324;SDS011;66387;53.440;10.390;2023-07-20T08:41:39;4.72;;;1.90;;
77324;SDS011;66387;53.440;10.390;2023-07-20T08:44:07;2.65;;;1.67;;
77324;SDS011;66387;53.440;10.390;2023-07-20T08:46:33;5.30;;;1.20;;
77324;SDS011;66387;53.440;10.390;2023-07-20T08:49:00;1.70;;;1.40;;
77324;SDS011;66387;53.440;10.390;2023-07-20T08:51:27;2.78;;;1.50;;
77324;SDS011;66387;53.440;10.390;2023-07-20T08:53:53;1.65;;;1.48;;
77324;SDS011;66387;53.440;10.390;2023-07-20T08:56:18;4.07;;;1.90;;
77324;SDS011;66387;53.440;10.390;2023-07-20T08:58:45;2.58;;;1.27;;
77324;SDS011;66387;53.440;10.390;2023-07-20T09:01:11;1.65;;;1.10;;
77324;SDS011;66387;53.440;10.390;2023-07-20T09:03:38;6.30;;;1.55;;
77324;SDS011;66387;53.440;10.390;2023-07-20T09:06:04;1.58;;;1.25;;
77324;SDS011;66387;53.440;10.390;2023-07-20T09:08:30;3.30;;;1.75;;
77324;SDS011;66387;53.440;10.390;2023-07-20T09:10:56;5.10;;;2.45;;
77324;SDS011;66387;53.440;10.390;2023-07-20T09:13:21;2.60;;;1.30;;
77324;SDS011;66387;53.440;10.390;2023-07-20T09:15:46;3.30;;;1.42;;
77324;SDS011;66387;53.440;10.390;2023-07-20T09:18:14;3.78;;;2.20;;
77324;SDS011;66387;53.440;10.390;2023-07-20T09:20:48;2.88;;;1.60;;
77324;SDS011;66387;53.440;10.390;2023-07-20T09:23:14;4.75;;;1.83;;
77324;SDS011;66387;53.440;10.390;2023-07-20T09:25:39;2.58;;;1.60;;
77324;SDS011;66387;53.440;10.390;2023-07-20T09:28:05;3.55;;;1.67;;
77324;SDS011;66387;53.440;10.390;2023-07-20T09:30:31;5.00;;;1.93;;
77324;SDS011;66387;53.440;10.390;2023-07-20T09:32:56;6.15;;;1.95;;
77324;SDS011;66387;53.440;10.390;2023-07-20T09:35:21;6.70;;;1.90;;
77324;SDS011;66387;53.440;10.390;2023-07-20T09:37:54;2.67;;;1.80;;
77324;SDS011;66387;53.440;10.390;2023-07-20T09:40:24;2.55;;;1.70;;
77324;SDS011;66387;53.440;10.390;2023-07-20T09:42:51;3.60;;;1.90;;
77324;SDS011;66387;53.440;10.390;2023-07-20T09:45:18;3.83;;;2.60;;
77324;SDS011;66387;53.440;10.390;2023-07-20T09:47:44;4.20;;;2.20;;
77324;SDS011;66387;53.440;10.390;2023-07-20T09:50:09;4.80;;;1.77;;
77324;SDS011;66387;53.440;10.390;2023-07-20T09:52:38;3.70;;;1.90;;
77324;SDS011;66387;53.440;10.390;2023-07-20T09:55:09;5.07;;;2.28;;
77324;SDS011;66387;53.440;10.390;2023-07-20T09:57:36;4.65;;;2.25;;
77324;SDS011;66387;53.440;10.390;2023-07-20T10:00:05;3.50;;;1.77;;
77324;SDS011;66387;53.440;10.390;2023-07-20T10:02:40;4.07;;;1.98;;
77324;SDS011;66387;53.440;10.390;2023-07-20T10:05:08;3.17;;;1.73;;
77324;SDS011;66387;53.440;10.390;2023-07-20T10:07:36;2.20;;;1.45;;
77324;SDS011;66387;53.440;10.390;2023-07-20T10:10:13;2.00;;;1.30;;
77324;SDS011;66387;53.440;10.390;2023-07-20T10:12:42;3.17;;;1.30;;
77324;SDS011;66387;53.440;10.390;2023-07-20T10:18:18;3.83;;;1.70;;
77324;SDS011;66387;53.440;10.390;2023-07-20T10:20:51;5.70;;;1.85;;
77324;SDS011;66387;53.440;10.390;2023-07-20T10:23:16;3.47;;;1.92;;
77324;SDS011;66387;53.440;10.390;2023-07-20T10:25:42;3.17;;;2.00;;
77324;SDS011;66387;53.440;10.390;2023-07-20T10:28:08;4.10;;;1.88;;
77324;SDS011;66387;53.440;10.390;2023-07-20T10:30:35;3.15;;;1.83;;
77324;SDS011;66387;53.440;10.390;2023-07-20T10:33:04;3.25;;;1.65;;
77324;SDS011;66387;53.440;10.390;2023-07-20T10:35:31;2.85;;;1.27;;
77324;SDS011;66387;53.440;10.390;2023-07-20T10:38:15;3.80;;;1.33;;
77324;SDS011;66387;53.440;10.390;2023-07-20T10:40:41;2.30;;;1.43;;
77324;SDS011;66387;53.440;10.390;2023-07-20T10:43:07;2.93;;;1.70;;
77324;SDS011;66387;53.440;10.390;2023-07-20T10:48:04;4.50;;;1.40;;
77324;SDS011;66387;53.440;10.390;2023-07-20T10:50:31;3.00;;;1.30;;
77324;SDS011;66387;53.440;10.390;2023-07-20T10:53:09;1.33;;;0.98;;
77324;SDS011;66387;53.440;10.390;2023-07-20T10:55:35;1.63;;;0.90;;
77324;SDS011;66387;53.440;10.390;2023-07-20T10:58:21;3.00;;;1.27;;
77324;SDS011;66387;53.440;10.390;2023-07-20T11:01:01;2.47;;;1.50;;
77324;SDS011;66387;53.440;10.390;2023-07-20T11:03:29;2.00;;;1.25;;
77324;SDS011;66387;53.440;10.390;2023-07-20T11:05:58;2.35;;;1.35;;
77324;SDS011;66387;53.440;10.390;2023-07-20T11:08:42;2.92;;;1.17;;
77324;SDS011;66387;53.440;10.390;2023-07-20T11:11:21;4.13;;;1.80;;
77324;SDS011;66387;53.440;10.390;2023-07-20T11:13:55;2.15;;;1.00;;
77324;SDS011;66387;53.440;10.390;2023-07-20T11:19:13;1.88;;;1.13;;
77324;SDS011;66387;53.440;10.390;2023-07-20T11:21:53;2.63;;;0.95;;
77324;SDS011;66387;53.440;10.390;2023-07-20T11:24:19;3.85;;;1.23;;
77324;SDS011;66387;53.440;10.390;2023-07-20T11:26:46;3.00;;;1.40;;
77324;SDS011;66387;53.440;10.390;2023-07-20T11:29:13;3.20;;;1.42;;
77324;SDS011;66387;53.440;10.390;2023-07-20T11:31:41;2.38;;;1.63;;
77324;SDS011;66387;53.440;10.390;2023-07-20T11:34:09;3.78;;;1.20;;
77324;SDS011;66387;53.440;10.390;2023-07-20T11:36:37;2.75;;;0.98;;
77324;SDS011;66387;53.440;10.390;2023-07-20T11:39:03;1.95;;;0.65;;
77324;SDS011;66387;53.440;10.390;2023-07-20T11:41:29;1.58;;;0.88;;
77324;SDS011;66387;53.440;10.390;2023-07-20T11:43:55;0.82;;;0.75;;
77324;SDS011;66387;53.440;10.390;2023-07-20T11:46:22;3.78;;;1.65;;
77324;SDS011;66387;53.440;10.390;2023-07-20T11:48:47;1.27;;;0.77;;
77324;SDS011;66387;53.440;10.390;2023-07-20T11:51:13;3.87;;;1.40;;
77324;SDS011;66387;53.440;10.390;2023-07-20T11:53:40;3.35;;;1.30;;
77324;SDS011;66387;53.440;10.390;2023-07-20T11:56:06;1.42;;;1.10;;
77324;SDS011;66387;53.440;10.390;2023-07-20T11:58:31;1.27;;;0.70;;
77324;SDS011;66387;53.440;10.390;2023-07-20T12:00:57;3.20;;;0.83;;
77324;SDS011;66387;53.440;10.390;2023-07-20T12:03:22;2.90;;;0.70;;
77324;SDS011;66387;53.440;10.390;2023-07-20T12:05:47;1.30;;;0.40;;
77324;SDS011;66387;53.440;10.390;2023-07-20T12:08:14;0.32;;;0.30;;
77324;SDS011;66387;53.440;10.390;2023-07-20T12:10:40;0.40;;;0.40;;
77324;SDS011;66387;53.440;10.390;2023-07-20T12:13:09;1.50;;;0.90;;
77324;SDS011;66387;53.440;10.390;2023-07-20T12:15:35;0.82;;;0.60;;
77324;SDS011;66387;53.440;10.390;2023-07-20T12:18:01;2.38;;;1.15;;
77324;SDS011;66387;53.440;10.390;2023-07-20T12:20:28;4.20;;;0.80;;
77324;SDS011;66387;53.440;10.390;2023-07-20T12:22:59;2.17;;;1.17;;
77324;SDS011;66387;53.440;10.390;2023-07-20T12:28:11;3.60;;;0.80;;
77324;SDS011;66387;53.440;10.390;2023-07-20T12:30:38;3.03;;;0.80;;
77324;SDS011;66387;53.440;10.390;2023-07-20T12:33:05;1.83;;;0.77;;
77324;SDS011;66387;53.440;10.390;2023-07-20T12:35:30;1.25;;;0.88;;
77324;SDS011;66387;53.440;10.390;2023-07-20T12:37:57;3.05;;;1.08;;
77324;SDS011;66387;53.440;10.390;2023-07-20T12:40:23;2.10;;;0.70;;
77324;SDS011;66387;53.440;10.390;2023-07-20T12:42:48;3.42;;;1.13;;
77324;SDS011;66387;53.440;10.390;2023-07-20T12:45:14;2.38;;;0.80;;
77324;SDS011;66387;53.440;10.390;2023-07-20T12:47:39;1.80;;;0.57;;
77324;SDS011;66387;53.440;10.390;2023-07-20T12:50:05;2.08;;;0.85;;
77324;SDS011;66387;53.440;10.390;2023-07-20T12:52:31;1.73;;;0.90;;
77324;SDS011;66387;53.440;10.390;2023-07-20T12:54:57;1.27;;;0.98;;
77324;SDS011;66387;53.440;10.390;2023-07-20T12:57:23;1.30;;;0.77;;
77324;SDS011;66387;53.440;10.390;2023-07-20T12:59:49;1.00;;;0.70;;
77324;SDS011;66387;53.440;10.390;2023-07-20T13:02:14;1.90;;;1.07;;
77324;SDS011;66387;53.440;10.390;2023-07-20T13:04:39;1.33;;;1.00;;
77324;SDS011;66387;53.440;10.390;2023-07-20T13:07:04;1.27;;;0.70;;
77324;SDS011;66387;53.440;10.390;2023-07-20T13:09:30;1.60;;;1.10;;
77324;SDS011;66387;53.440;10.390;2023-07-20T13:11:55;1.93;;;0.93;;
77324;SDS011;66387;53.440;10.390;2023-07-20T13:14:22;1.10;;;0.90;;
77324;SDS011;66387;53.440;10.390;2023-07-20T13:16:47;2.43;;;1.00;;
77324;SDS011;66387;53.440;10.390;2023-07-20T13:19:12;1.90;;;1.10;;
77324;SDS011;66387;53.440;10.390;2023-07-20T13:21:37;1.13;;;0.70;;
77324;SDS011;66387;53.440;10.390;2023-07-20T13:24:03;2.40;;;0.87;;
77324;SDS011;66387;53.440;10.390;2023-07-20T13:26:29;5.63;;;1.00;;
77324;SDS011;66387;53.440;10.390;2023-07-20T13:28:54;4.68;;;1.10;;
77324;SDS011;66387;53.440;10.390;2023-07-20T13:31:19;1.87;;;0.80;;
77324;SDS011;66387;53.440;10.390;2023-07-20T13:33:45;3.03;;;1.00;;
77324;SDS011;66387;53.440;10.390;2023-07-20T13:36:11;2.67;;;1.00;;
77324;SDS011;66387;53.440;10.390;2023-07-20T13:38:36;1.98;;;0.60;;
77324;SDS011;66387;53.440;10.390;2023-07-20T13:41:01;1.57;;;0.90;;
77324;SDS011;66387;53.440;10.390;2023-07-20T13:43:27;2.70;;;1.17;;
77324;SDS011;66387;53.440;10.390;2023-07-20T13:45:52;1.70;;;0.77;;
77324;SDS011;66387;53.440;10.390;2023-07-20T13:48:17;2.30;;;0.83;;
77324;SDS011;66387;53.440;10.390;2023-07-20T13:50:44;1.92;;;0.95;;
77324;SDS011;66387;53.440;10.390;2023-07-20T13:53:10;2.70;;;1.38;;
77324;SDS011;66387;53.440;10.390;2023-07-20T13:55:35;2.50;;;1.20;;
77324;SDS011;66387;53.440;10.390;2023-07-20T13:58:02;4.93;;;1.33;;
77324;SDS011;66387;53.440;10.390;2023-07-20T14:00:27;4.47;;;1.13;;
77324;SDS011;66387;53.440;10.390;2023-07-20T14:02:57;1.13;;;0.70;;
77324;SDS011;66387;53.440;10.390;2023-07-20T14:05:23;2.95;;;0.93;;
77324;SDS011;66387;53.440;10.390;2023-07-20T14:07:48;3.23;;;1.10;;
77324;SDS011;66387;53.440;10.390;2023-07-20T14:10:15;3.33;;;0.90;;
77324;SDS011;66387;53.440;10.390;2023-07-20T14:12:40;1.67;;;0.93;;
77324;SDS011;66387;53.440;10.390;2023-07-20T14:15:05;2.27;;;1.43;;
77324;SDS011;66387;53.440;10.390;2023-07-20T14:17:31;2.60;;;0.88;;
77324;SDS011;66387;53.440;10.390;2023-07-20T14:19:56;1.50;;;0.67;;
77324;SDS011;66387;53.440;10.390;2023-07-20T14:22:21;1.70;;;0.80;;
77324;SDS011;66387;53.440;10.390;2023-07-20T14:24:46;2.83;;;1.00;;
77324;SDS011;66387;53.440;10.390;2023-07-20T14:27:12;2.90;;;0.97;;
77324;SDS011;66387;53.440;10.390;2023-07-20T14:29:37;2.23;;;1.20;;
77324;SDS011;66387;53.440;10.390;2023-07-20T14:32:02;2.03;;;1.27;;
77324;SDS011;66387;53.440;10.390;2023-07-20T14:34:29;1.75;;;0.73;;
77324;SDS011;66387;53.440;10.390;2023-07-20T14:36:54;0.67;;;0.50;;
77324;SDS011;66387;53.440;10.390;2023-07-20T14:39:20;2.33;;;1.07;;
77324;SDS011;66387;53.440;10.390;2023-07-20T14:41:45;1.52;;;0.82;;
77324;SDS011;66387;53.440;10.390;2023-07-20T14:44:10;2.05;;;0.70;;
77324;SDS011;66387;53.440;10.390;2023-07-20T14:46:36;4.70;;;0.80;;
77324;SDS011;66387;53.440;10.390;2023-07-20T14:49:01;1.57;;;0.90;;
77324;SDS011;66387;53.440;10.390;2023-07-20T14:51:27;1.50;;;0.95;;
77324;SDS011;66387;53.440;10.390;2023-07-20T14:53:58;0.70;;;0.35;;
77324;SDS011;66387;53.440;10.390;2023-07-20T14:56:23;1.20;;;0.65;;